Viboras, Texas
Current Conditions -  °F | °C
As of 2:55 PM on Tuesday 27 Jan 2015 (Local Time) from KHBV Reporting Station
Clear Clear  
Wind Chill: 79°   Ceiling: Unl
Heat Index: 79°   Visibility: 7mi
Dew Point: 33°   Wind: 3mph
Humidity: 19%   Direction: 230°SW
Pressure: 30.15"   Gusts: NA
Location:  27.0695°N, 98.7494°W
Report Text: KHBV 272055Z AUTO 23003KT 7SM CLR 26/01 A3015 RMK AO2 T02630008
Loading
Personal Weather Stations






























Interactive Weather Map New forecast layout! Learn more

10-Day Weather Forecast

Advertisements
Track Severe Weather on mobile